Bakaly, Russia
Current Conditions -  °F | °C
As of 5:30 AM on Tuesday 25 Nov 2014 (Local Time) from UWKE Reporting Station
Clear Clear  
Wind Chill: -12°   Ceiling: Unl
Heat Index:   Visibility: 6mi
Dew Point: -2°   Wind: 13mph
Humidity: 72%   Direction: 220°SW
Pressure: 30.68"   Gusts: NA
Location:  55.18°N, 53.8°E
Report Text: UWKE 250030Z 22006MPS CAVOK M15/M19 Q1039 NOSIG RMK QFE762/101621090070
Loading
Personal Weather Stations






























Interactive Weather Map New forecast layout! Learn more

10-Day Weather Forecast

Advertisements
Track Severe Weather on mobile